Time;durP1;ratioP1;P1;durP2;ratioP2;P2;SDS_P1;SDS_P2;PMS_P1;PMS_P2;Temp;Humidity;BMP_temperature;BMP_pressure;BME280_temperature;BME280_humidity;BME280_pressure;Samples;Min_cycle;Max_cycle;Signal;HPM_P1;HPM_P2
2023/11/05 00:02:02;;;;;;;4.07;2.10;;;9.80;99.90;;;;;;5065431;28;20040;-74
2023/11/05 00:04:27;;;;;;;5.28;2.22;;;9.80;99.90;;;;;;5069305;28;20439;-74
2023/11/05 00:06:53;;;;;;;4.95;2.00;;;9.80;99.90;;;;;;5053238;28;20037;-74
2023/11/05 00:09:18;;;;;;;5.15;2.25;;;9.80;99.90;;;;;;5053207;28;20055;-74
2023/11/05 00:11:44;;;;;;;7.95;3.15;;;9.80;99.90;;;;;;5053123;28;20080;-74
2023/11/05 00:14:10;;;;;;;7.20;2.53;;;9.80;99.90;;;;;;5071198;28;20055;-74
2023/11/05 00:16:35;;;;;;;6.70;2.95;;;9.80;99.90;;;;;;5053321;28;20036;-74
2023/11/05 00:19:01;;;;;;;8.05;2.80;;;9.80;99.90;;;;;;5049926;28;20509;-74
2023/11/05 00:21:26;;;;;;;7.10;2.65;;;9.80;99.90;;;;;;5052922;28;20055;-74
2023/11/05 00:23:52;;;;;;;11.20;2.50;;;9.80;99.90;;;;;;5053251;28;20119;-74
2023/11/05 00:26:18;;;;;;;7.22;2.42;;;9.90;99.90;;;;;;5073464;28;20085;-74
2023/11/05 00:28:43;;;;;;;8.75;2.50;;;9.80;99.90;;;;;;5075338;28;20120;-74
2023/11/05 00:31:09;;;;;;;7.20;2.22;;;9.80;99.90;;;;;;5075003;28;20032;-74
2023/11/05 00:33:35;;;;;;;8.20;2.22;;;9.80;99.90;;;;;;5056814;28;20076;-74
2023/11/05 00:36:01;;;;;;;10.38;2.88;;;9.80;99.90;;;;;;5056995;28;20075;-74
2023/11/05 00:38:26;;;;;;;8.40;2.75;;;9.90;99.90;;;;;;5074868;28;20043;-74
2023/11/05 00:40:52;;;;;;;9.48;2.60;;;9.80;99.90;;;;;;5074910;28;20043;-74
2023/11/05 00:43:17;;;;;;;8.70;2.80;;;9.80;99.90;;;;;;5057148;28;20028;-74
2023/11/05 00:45:43;;;;;;;13.18;2.35;;;9.80;99.90;;;;;;5056813;28;20076;-73
2023/11/05 00:48:08;;;;;;;10.93;2.67;;;9.70;99.90;;;;;;5056925;28;20442;-74
2023/11/05 00:50:34;;;;;;;7.22;2.50;;;9.70;99.90;;;;;;5074731;28;20032;-74
2023/11/05 00:52:59;;;;;;;7.22;2.78;;;9.70;99.90;;;;;;5056622;28;20094;-74
2023/11/05 00:55:25;;;;;;;8.70;2.58;;;9.70;99.90;;;;;;5056678;28;20036;-74
2023/11/05 00:57:51;;;;;;;10.80;2.40;;;9.70;99.90;;;;;;5056846;28;20407;-74
2023/11/05 01:00:17;;;;;;;11.27;2.90;;;9.70;99.90;;;;;;5040243;28;20040;-74
2023/11/05 01:02:46;;;;;;;6.97;2.00;;;9.70;99.90;;;;;;5048478;28;20029;-74
2023/11/05 01:05:11;;;;;;;10.75;2.42;;;9.70;99.90;;;;;;5056526;28;20044;-74
2023/11/05 01:07:37;;;;;;;6.53;2.70;;;9.80;99.90;;;;;;5040181;28;20496;-74
2023/11/05 01:10:03;;;;;;;8.07;2.40;;;9.70;99.90;;;;;;5056533;28;20093;-74
2023/11/05 01:12:29;;;;;;;8.68;2.58;;;9.70;99.90;;;;;;5056244;28;20124;-74
2023/11/05 01:14:55;;;;;;;6.93;1.80;;;9.70;99.90;;;;;;5039697;28;20123;-74
2023/11/05 01:17:21;;;;;;;10.30;2.30;;;9.70;99.90;;;;;;5056235;28;20047;-74
2023/11/05 01:19:47;;;;;;;8.27;2.80;;;9.70;99.90;;;;;;5056233;28;20539;-73
2023/11/05 01:22:12;;;;;;;7.97;2.33;;;9.70;99.90;;;;;;5055949;28;20072;-74
2023/11/05 01:24:38;;;;;;;8.55;2.05;;;9.70;99.90;;;;;;5056215;28;20409;-74
2023/11/05 01:27:03;;;;;;;8.43;2.10;;;9.70;99.90;;;;;;5073653;28;20089;-74
2023/11/05 01:29:30;;;;;;;8.25;2.30;;;9.70;99.90;;;;;;5056178;28;20033;-73
2023/11/05 01:31:56;;;;;;;9.55;1.98;;;9.60;99.90;;;;;;5055857;28;20074;-74
2023/11/05 01:34:22;;;;;;;8.45;2.50;;;9.60;99.90;;;;;;5055999;28;20411;-74
2023/11/05 01:36:47;;;;;;;9.95;2.28;;;9.60;99.90;;;;;;5055184;28;20040;-74
2023/11/05 01:39:13;;;;;;;11.77;1.98;;;9.60;99.90;;;;;;5055576;28;20060;-74
2023/11/05 01:41:39;;;;;;;8.75;2.17;;;9.50;99.90;;;;;;5055962;28;20377;-74
2023/11/05 01:44:05;;;;;;;8.93;3.05;;;9.50;99.90;;;;;;5055805;28;20071;-74
2023/11/05 01:46:30;;;;;;;6.25;2.05;;;9.40;99.90;;;;;;5055576;28;20056;-74
2023/11/05 01:48:57;;;;;;;9.73;2.13;;;9.40;99.90;;;;;;5055565;28;20068;-73
2023/11/05 01:51:23;;;;;;;8.43;2.03;;;9.50;99.90;;;;;;5055501;28;20042;-74
2023/11/05 01:53:54;;;;;;;9.63;3.88;;;9.40;99.90;;;;;;5055474;28;20131;-74
2023/11/05 01:56:22;;;;;;;10.18;2.28;;;9.30;99.90;;;;;;5055803;28;20103;-74
2023/11/05 01:58:52;;;;;;;8.02;3.05;;;9.30;99.90;;;;;;5055872;28;20447;-74
2023/11/05 02:01:18;;;;;;;5.75;1.80;;;9.30;99.90;;;;;;5055635;28;20115;-74
2023/11/05 02:03:44;;;;;;;10.63;2.58;;;9.30;99.90;;;;;;5073283;28;20036;-74
2023/11/05 02:06:12;;;;;;;11.10;1.85;;;9.30;99.90;;;;;;5055335;28;20389;-74
2023/11/05 02:08:39;;;;;;;4.00;1.75;;;9.20;99.90;;;;;;5038844;28;20051;-74
2023/11/05 02:11:05;;;;;;;7.57;1.90;;;9.20;99.90;;;;;;5055323;28;20048;-74
2023/11/05 02:13:46;;;;;;;9.27;3.05;;;9.20;99.90;;;;;;5055174;28;20033;-74
2023/11/05 02:16:13;;;;;;;6.55;2.38;;;9.10;99.90;;;;;;5055036;28;20044;-74
2023/11/05 02:18:38;;;;;;;11.05;2.00;;;9.10;99.90;;;;;;5055267;28;20514;-74
2023/11/05 02:21:05;;;;;;;9.18;2.35;;;9.20;99.90;;;;;;5055432;28;20075;-74
2023/11/05 02:23:34;;;;;;;5.20;2.47;;;9.10;99.90;;;;;;5054990;28;20122;-74
2023/11/05 02:26:00;;;;;;;5.38;2.10;;;9.10;99.90;;;;;;5054781;28;20086;-74
2023/11/05 02:28:26;;;;;;;9.63;1.85;;;9.10;99.90;;;;;;5054911;28;20047;-74
2023/11/05 02:30:54;;;;;;;8.35;2.17;;;9.10;99.90;;;;;;5055074;28;20066;-74
2023/11/05 02:33:20;;;;;;;7.90;1.80;;;9.20;99.90;;;;;;5072731;28;20044;-74
2023/11/05 02:35:46;;;;;;;7.13;2.20;;;9.20;99.90;;;;;;5054760;28;20450;-74
2023/11/05 02:38:12;;;;;;;12.93;2.47;;;9.20;99.90;;;;;;5054850;28;20043;-74
2023/11/05 02:40:37;;;;;;;5.72;2.70;;;9.20;99.90;;;;;;5072525;28;20060;-74
2023/11/05 02:43:03;;;;;;;8.05;2.00;;;9.30;99.90;;;;;;5038025;28;20044;-74
2023/11/05 02:45:28;;;;;;;13.40;2.42;;;9.30;99.90;;;;;;5054365;28;20114;-73
2023/11/05 02:47:54;;;;;;;9.95;2.42;;;9.30;99.90;;;;;;5054981;28;20043;-74
2023/11/05 02:50:19;;;;;;;11.50;2.33;;;9.30;99.90;;;;;;5054428;28;20044;-74
2023/11/05 02:52:45;;;;;;;8.82;2.47;;;9.30;99.90;;;;;;5054450;28;20393;-74
2023/11/05 02:55:10;;;;;;;8.73;2.83;;;9.30;99.90;;;;;;5054043;28;20040;-74
2023/11/05 02:57:36;;;;;;;9.70;2.75;;;9.30;99.90;;;;;;5054402;28;20500;-74
2023/11/05 03:00:07;;;;;;;6.70;2.50;;;9.30;99.90;;;;;;5054502;28;20044;-74
2023/11/05 03:02:36;;;;;;;5.60;2.08;;;9.30;99.90;;;;;;5054513;28;20051;-73
2023/11/05 03:05:03;;;;;;;12.25;2.22;;;9.20;99.90;;;;;;5053820;28;20041;-74
2023/11/05 03:07:29;;;;;;;11.00;2.70;;;9.20;99.90;;;;;;5054219;28;20098;-74
2023/11/05 03:09:55;;;;;;;8.27;2.30;;;9.20;99.90;;;;;;5037341;28;20041;-74
2023/11/05 03:12:21;;;;;;;8.30;2.38;;;9.20;99.90;;;;;;5037760;28;20097;-73
2023/11/05 03:14:46;;;;;;;8.82;2.13;;;9.20;99.90;;;;;;5054009;28;20534;-74
2023/11/05 03:17:12;;;;;;;7.70;1.92;;;9.10;99.90;;;;;;5053862;28;20040;-74
2023/11/05 03:19:38;;;;;;;7.82;1.95;;;9.20;99.90;;;;;;5053976;28;20032;-74
2023/11/05 03:22:05;;;;;;;11.35;2.40;;;9.20;99.90;;;;;;5037254;28;20050;-74
2023/11/05 03:24:31;;;;;;;7.90;2.25;;;9.20;99.90;;;;;;5054011;28;20059;-74
2023/11/05 03:26:57;;;;;;;8.00;1.95;;;9.30;99.90;;;;;;5053702;28;20040;-74
2023/11/05 03:29:22;;;;;;;12.77;2.50;;;9.30;99.90;;;;;;5037547;28;20036;-74
2023/11/05 03:31:51;;;;;;;8.05;1.77;;;9.30;99.90;;;;;;5053723;28;20082;-74
2023/11/05 03:34:18;;;;;;;8.75;1.80;;;9.30;99.90;;;;;;5053953;28;20098;-74
2023/11/05 03:36:44;;;;;;;6.05;2.67;;;9.30;99.90;;;;;;5053850;28;20063;-74
2023/11/05 03:39:10;;;;;;;7.47;1.50;;;9.30;99.90;;;;;;5053823;28;20040;-74
2023/11/05 03:41:35;;;;;;;9.18;2.08;;;9.30;99.90;;;;;;5053514;28;20128;-74
2023/11/05 03:44:01;;;;;;;9.77;2.15;;;9.40;99.90;;;;;;5037182;28;20044;-74
2023/11/05 03:46:26;;;;;;;12.27;2.13;;;9.30;99.90;;;;;;5071499;28;20045;-74
2023/11/05 03:48:52;;;;;;;11.73;2.55;;;9.30;99.90;;;;;;5053700;28;20036;-74
2023/11/05 03:51:18;;;;;;;7.32;2.15;;;9.40;99.90;;;;;;5071456;28;20037;-74
2023/11/05 03:53:45;;;;;;;7.35;2.42;;;9.30;99.90;;;;;;5053172;28;20492;-74
2023/11/05 03:56:11;;;;;;;14.98;3.33;;;9.30;99.90;;;;;;5053649;28;20040;-74
2023/11/05 03:58:39;;;;;;;7.75;1.88;;;9.30;99.90;;;;;;5071798;28;20041;-74
2023/11/05 04:01:13;;;;;;;7.72;1.60;;;9.20;99.90;;;;;;5057230;28;20044;-74
2023/11/05 04:03:40;;;;;;;10.77;2.45;;;9.30;99.90;;;;;;5060270;28;20068;-74
2023/11/05 04:06:06;;;;;;;5.45;1.85;;;9.30;99.90;;;;;;5060162;28;20098;-74
2023/11/05 04:08:32;;;;;;;8.02;2.78;;;9.20;99.90;;;;;;5060350;28;20032;-74
2023/11/05 04:10:58;;;;;;;10.45;2.22;;;9.20;99.90;;;;;;5077993;28;20078;-74
2023/11/05 04:13:24;;;;;;;9.00;2.28;;;9.20;99.90;;;;;;5059992;28;20403;-74
2023/11/05 04:15:49;;;;;;;12.50;1.77;;;9.10;99.90;;;;;;5060047;28;20037;-74
2023/11/05 04:18:15;;;;;;;11.15;2.38;;;9.20;99.90;;;;;;5042973;28;20507;-74
2023/11/05 04:20:40;;;;;;;11.50;2.55;;;9.10;99.90;;;;;;5058666;28;20049;-74
2023/11/05 04:23:06;;;;;;;9.93;2.00;;;9.20;99.90;;;;;;5059283;28;20044;-74
2023/11/05 04:25:31;;;;;;;9.00;2.05;;;9.20;99.90;;;;;;5058790;28;20036;-74
2023/11/05 04:27:57;;;;;;;10.95;2.10;;;9.20;99.90;;;;;;5077259;28;20044;-74
2023/11/05 04:30:23;;;;;;;12.73;2.17;;;9.20;99.90;;;;;;5059752;28;20040;-74
2023/11/05 04:32:48;;;;;;;5.47;1.70;;;9.30;99.90;;;;;;5059939;28;20040;-74
2023/11/05 04:35:14;;;;;;;8.85;2.05;;;9.20;99.90;;;;;;5077589;28;20500;-74
2023/11/05 04:37:40;;;;;;;15.65;3.47;;;9.30;99.90;;;;;;5043057;28;20666;-74
2023/11/05 04:40:06;;;;;;;8.93;2.67;;;9.30;99.90;;;;;;5059721;28;20119;-74
2023/11/05 04:42:31;;;;;;;9.63;2.25;;;9.30;99.90;;;;;;5059879;28;20097;-74
2023/11/05 04:45:00;;;;;;;7.35;2.25;;;9.40;99.90;;;;;;5060043;28;20049;-74
2023/11/05 04:47:26;;;;;;;16.10;2.60;;;9.40;99.90;;;;;;5060121;28;20558;-74
2023/11/05 04:49:52;;;;;;;7.47;2.30;;;9.40;99.90;;;;;;5059710;28;20032;-74
2023/11/05 04:52:17;;;;;;;6.93;1.80;;;9.40;99.90;;;;;;5059676;28;20037;-74
2023/11/05 04:54:44;;;;;;;6.85;2.20;;;9.40;99.90;;;;;;5059092;28;20040;-74
2023/11/05 04:57:10;;;;;;;8.82;2.15;;;9.40;99.90;;;;;;5059561;28;20036;-74
2023/11/05 04:59:38;;;;;;;8.80;2.28;;;9.30;99.90;;;;;;5059351;28;20123;-74
2023/11/05 05:02:05;;;;;;;10.55;2.88;;;9.40;99.90;;;;;;5042659;28;20075;-74
2023/11/05 05:04:31;;;;;;;13.20;2.53;;;9.30;99.90;;;;;;5059656;28;20093;-74
2023/11/05 05:06:56;;;;;;;9.85;1.98;;;9.30;99.90;;;;;;5059646;28;20048;-74
2023/11/05 05:09:22;;;;;;;9.80;2.47;;;9.40;99.90;;;;;;5077349;28;20040;-74
2023/11/05 05:11:47;;;;;;;7.97;2.22;;;9.40;99.90;;;;;;5057465;28;20045;-74
2023/11/05 05:14:13;;;;;;;8.73;2.60;;;9.40;99.90;;;;;;5055813;28;20043;-74
2023/11/05 05:16:38;;;;;;;7.35;2.20;;;9.30;99.90;;;;;;5056245;28;20040;-74
2023/11/05 05:19:04;;;;;;;6.38;2.35;;;9.40;99.90;;;;;;5039638;28;20421;-74
2023/11/05 05:21:30;;;;;;;6.20;1.83;;;9.40;99.90;;;;;;5056296;28;20051;-74
2023/11/05 05:23:55;;;;;;;9.23;2.15;;;9.40;99.90;;;;;;5056148;28;20041;-74
2023/11/05 05:26:21;;;;;;;10.35;2.25;;;9.40;99.90;;;;;;5056015;28;20037;-74
2023/11/05 05:28:47;;;;;;;7.70;2.35;;;9.50;99.90;;;;;;5056107;28;20028;-74
2023/11/05 05:31:15;;;;;;;6.65;2.03;;;9.40;99.90;;;;;;5056068;28;20036;-74
2023/11/05 05:33:41;;;;;;;7.38;1.95;;;9.40;99.90;;;;;;5055848;28;20040;-74
2023/11/05 05:36:07;;;;;;;3.20;1.77;;;9.50;99.90;;;;;;5055858;28;20047;-74
2023/11/05 05:38:33;;;;;;;11.07;2.80;;;9.40;99.90;;;;;;5055981;28;20111;-74
2023/11/05 05:40:59;;;;;;;10.50;3.88;;;9.40;99.90;;;;;;5039246;28;20062;-74
2023/11/05 05:43:25;;;;;;;9.38;2.28;;;9.50;99.90;;;;;;5073711;28;20036;-74
2023/11/05 05:45:51;;;;;;;9.32;2.58;;;9.50;99.90;;;;;;5055515;28;20561;-74
2023/11/05 05:48:17;;;;;;;5.53;2.47;;;9.50;99.90;;;;;;5056098;28;20040;-74
2023/11/05 05:50:42;;;;;;;6.22;2.20;;;9.50;99.90;;;;;;5055628;28;20093;-74
2023/11/05 05:53:10;;;;;;;10.65;2.72;;;9.40;99.90;;;;;;5038856;28;20411;-74
2023/11/05 05:55:36;;;;;;;9.13;2.85;;;9.50;99.90;;;;;;5055581;28;20051;-74
2023/11/05 05:58:03;;;;;;;10.95;2.15;;;9.40;99.90;;;;;;5055558;28;20041;-74
2023/11/05 06:00:29;;;;;;;10.60;2.15;;;9.50;99.90;;;;;;5055452;28;20045;-74
2023/11/05 06:02:55;;;;;;;4.47;2.08;;;9.40;99.90;;;;;;5055438;28;20037;-74
2023/11/05 06:05:20;;;;;;;8.85;2.25;;;9.40;99.90;;;;;;5055282;28;20419;-74
2023/11/05 06:07:46;;;;;;;10.65;2.28;;;9.40;99.90;;;;;;5073414;28;20036;-74
2023/11/05 06:10:12;;;;;;;9.05;2.47;;;9.40;99.90;;;;;;5075110;28;20514;-74
2023/11/05 06:12:39;;;;;;;9.35;2.30;;;9.50;99.90;;;;;;5075118;28;20468;-74
2023/11/05 06:15:05;;;;;;;8.77;2.47;;;9.40;99.90;;;;;;5075054;28;20134;-74
2023/11/05 06:17:31;;;;;;;7.68;2.08;;;9.40;99.90;;;;;;5075269;28;20074;-74
2023/11/05 06:19:57;;;;;;;8.48;2.20;;;9.50;99.90;;;;;;5075432;28;20616;-74
2023/11/05 06:22:22;;;;;;;8.82;2.50;;;9.50;99.90;;;;;;5075263;28;20032;-74
2023/11/05 06:24:48;;;;;;;14.50;3.55;;;9.50;99.90;;;;;;5074663;28;20560;-74
2023/11/05 06:27:14;;;;;;;7.35;2.60;;;9.40;99.90;;;;;;5074917;28;20039;-74
2023/11/05 06:29:39;;;;;;;7.18;2.03;;;9.50;99.90;;;;;;5093308;28;20059;-74
2023/11/05 06:32:05;;;;;;;7.40;1.83;;;9.50;99.90;;;;;;5074739;28;20032;-74
2023/11/05 06:34:31;;;;;;;7.63;2.53;;;9.50;99.90;;;;;;5074789;28;20054;-74
2023/11/05 06:37:00;;;;;;;8.80;2.50;;;9.50;99.90;;;;;;5074779;28;20415;-74
2023/11/05 06:39:29;;;;;;;7.03;2.58;;;9.40;99.90;;;;;;5074498;28;20040;-74
2023/11/05 06:41:56;;;;;;;9.52;2.78;;;9.40;99.90;;;;;;5074344;28;20077;-74
2023/11/05 06:44:22;;;;;;;9.98;2.83;;;9.50;99.90;;;;;;5057972;28;20036;-74
2023/11/05 06:46:47;;;;;;;7.05;2.75;;;9.50;99.90;;;;;;5073679;28;20042;-74
2023/11/05 06:49:13;;;;;;;7.28;2.95;;;9.40;99.90;;;;;;5057935;28;20067;-74
2023/11/05 06:51:38;;;;;;;6.75;3.22;;;9.50;99.90;;;;;;5074394;28;20044;-74
2023/11/05 06:54:05;;;;;;;6.68;2.83;;;9.50;99.90;;;;;;5074447;28;20032;-74
2023/11/05 06:56:30;;;;;;;10.57;2.90;;;9.50;99.90;;;;;;5074247;28;20400;-74
2023/11/05 06:58:56;;;;;;;5.70;2.55;;;9.50;99.90;;;;;;5092531;28;20081;-74
2023/11/05 07:01:21;;;;;;;8.70;3.10;;;9.50;99.90;;;;;;5074061;28;20043;-74
2023/11/05 07:03:47;;;;;;;9.63;2.92;;;9.50;99.90;;;;;;5073986;28;20376;-74
2023/11/05 07:06:13;;;;;;;7.22;2.42;;;9.40;99.90;;;;;;5092368;28;20066;-74
2023/11/05 07:08:39;;;;;;;4.65;2.38;;;9.40;99.90;;;;;;5092293;28;20394;-74
2023/11/05 07:11:05;;;;;;;9.20;2.67;;;9.50;99.90;;;;;;5057337;28;20040;-74
2023/11/05 07:13:32;;;;;;;6.80;2.50;;;9.50;99.90;;;;;;5074273;28;20044;-74
2023/11/05 07:15:58;;;;;;;7.25;2.85;;;9.50;99.90;;;;;;5074128;28;20036;-74
2023/11/05 07:18:23;;;;;;;6.15;2.30;;;9.50;99.90;;;;;;5092082;28;20096;-74
2023/11/05 07:20:49;;;;;;;3.80;2.28;;;9.50;99.90;;;;;;5074402;28;20084;-74
2023/11/05 07:23:15;;;;;;;5.00;2.42;;;9.50;99.90;;;;;;5074019;28;20149;-74
2023/11/05 07:25:41;;;;;;;8.13;2.85;;;9.50;99.90;;;;;;5074038;28;20507;-74
2023/11/05 07:28:06;;;;;;;8.35;2.83;;;9.50;99.90;;;;;;5074072;28;20036;-74
2023/11/05 07:30:32;;;;;;;5.28;2.65;;;9.50;99.90;;;;;;5057389;28;20044;-74
2023/11/05 07:32:57;;;;;;;6.72;3.05;;;9.60;99.90;;;;;;5074061;28;20582;-74
2023/11/05 07:35:23;;;;;;;9.98;3.40;;;9.70;99.90;;;;;;5073152;28;20487;-74
2023/11/05 07:37:49;;;;;;;6.68;2.80;;;9.70;99.90;;;;;;5073881;28;20122;-74
2023/11/05 07:40:15;;;;;;;7.55;2.85;;;9.70;99.90;;;;;;5073629;28;20036;-74
2023/11/05 07:42:43;;;;;;;10.43;3.30;;;9.60;99.90;;;;;;5073509;28;20123;-74
2023/11/05 07:45:10;;;;;;;8.70;3.08;;;9.70;99.90;;;;;;5073708;28;20036;-74
2023/11/05 07:47:39;;;;;;;6.25;3.28;;;9.70;99.90;;;;;;5073662;28;20048;-74
2023/11/05 07:50:13;;;;;;;9.60;3.50;;;9.70;99.90;;;;;;5073504;28;20055;-74
2023/11/05 07:52:41;;;;;;;7.93;3.63;;;9.70;99.90;;;;;;5073517;28;20482;-74
2023/11/05 07:55:07;;;;;;;7.40;3.28;;;9.80;99.90;;;;;;5073354;28;20093;-74
2023/11/05 07:57:33;;;;;;;7.70;2.90;;;9.70;99.90;;;;;;5091767;28;20032;-74
2023/11/05 08:00:00;;;;;;;6.25;3.13;;;9.80;99.90;;;;;;5073588;28;20127;-74
2023/11/05 08:02:26;;;;;;;8.10;3.50;;;9.80;99.90;;;;;;5073304;28;20039;-74
2023/11/05 08:04:52;;;;;;;7.32;3.47;;;9.80;99.90;;;;;;5073337;28;20040;-75
2023/11/05 08:07:18;;;;;;;9.55;3.50;;;9.80;99.90;;;;;;5073525;28;20082;-75
2023/11/05 08:09:43;;;;;;;7.07;3.33;;;9.80;99.90;;;;;;5073488;28;20040;-74
2023/11/05 08:12:09;;;;;;;6.97;3.42;;;9.80;99.90;;;;;;5073179;28;20481;-74
2023/11/05 08:14:35;;;;;;;10.93;4.07;;;9.90;99.90;;;;;;5073444;28;20037;-74
2023/11/05 08:17:01;;;;;;;9.02;3.53;;;9.90;99.90;;;;;;5045259;28;20511;-74
2023/11/05 08:19:26;;;;;;;6.50;3.85;;;9.90;99.90;;;;;;5052936;28;20032;-74
2023/11/05 08:21:52;;;;;;;5.43;3.25;;;9.90;99.90;;;;;;5052976;28;20411;-74
2023/11/05 08:24:18;;;;;;;5.88;2.95;;;10.00;99.90;;;;;;5052681;28;20039;-74
2023/11/05 08:26:44;;;;;;;5.82;3.17;;;10.00;99.90;;;;;;5052506;28;20127;-74
2023/11/05 08:29:09;;;;;;;7.32;3.08;;;10.00;99.90;;;;;;5059971;28;20039;-74
2023/11/05 08:31:35;;;;;;;5.40;3.30;;;10.10;99.90;;;;;;5073106;28;20388;-74
2023/11/05 08:34:01;;;;;;;6.88;4.22;;;10.20;99.90;;;;;;5073210;28;20044;-74
2023/11/05 08:36:27;;;;;;;7.38;3.90;;;10.20;99.90;;;;;;5073028;28;20040;-74
2023/11/05 08:38:52;;;;;;;9.15;3.40;;;10.20;99.90;;;;;;5073211;28;20165;-74
2023/11/05 08:41:18;;;;;;;8.63;3.53;;;10.20;99.90;;;;;;5091096;28;20032;-74
2023/11/05 08:43:44;;;;;;;5.95;3.22;;;10.20;99.90;;;;;;5073061;28;20036;-75
2023/11/05 08:46:09;;;;;;;7.15;4.15;;;10.30;99.90;;;;;;5073273;28;20048;-74
2023/11/05 08:48:35;;;;;;;10.15;3.83;;;10.30;99.90;;;;;;5077116;28;20047;-75
2023/11/05 08:51:01;;;;;;;7.13;4.15;;;10.30;99.90;;;;;;5076847;28;20032;-74
2023/11/05 08:53:26;;;;;;;10.10;4.57;;;10.40;99.90;;;;;;5076507;28;20458;-75
2023/11/05 08:55:52;;;;;;;5.88;3.67;;;10.40;99.90;;;;;;5062275;28;20108;-75
2023/11/05 08:58:18;;;;;;;6.93;3.97;;;10.50;99.90;;;;;;5035512;28;20059;-73
2023/11/05 09:00:44;;;;;;;8.52;4.82;;;10.60;99.90;;;;;;5054572;28;20055;-76
2023/11/05 09:03:12;;;;;;;9.32;4.97;;;10.60;99.90;;;;;;5056402;28;20074;-75
2023/11/05 09:05:38;;;;;;;5.38;3.50;;;10.60;99.90;;;;;;5039635;28;20047;-76
2023/11/05 09:08:04;;;;;;;6.25;3.63;;;10.60;99.90;;;;;;5059311;28;20037;-77
2023/11/05 09:10:30;;;;;;;5.97;4.40;;;10.60;99.90;;;;;;5058554;28;20047;-75
2023/11/05 09:12:59;;;;;;;8.30;4.57;;;10.60;99.90;;;;;;5085674;28;20035;-78
2023/11/05 09:15:28;;;;;;;9.10;4.35;;;10.70;99.90;;;;;;5067741;28;20044;-77
2023/11/05 09:17:53;;;;;;;8.85;4.57;;;10.70;99.90;;;;;;5039505;28;20503;-77
2023/11/05 09:20:19;;;;;;;8.43;4.40;;;10.70;99.90;;;;;;5056090;28;20033;-75
2023/11/05 09:22:46;;;;;;;9.55;4.95;;;10.70;99.90;;;;;;5059909;28;20120;-76
2023/11/05 09:25:12;;;;;;;11.68;4.40;;;10.80;99.90;;;;;;5059548;28;20391;-75
2023/11/05 09:27:38;;;;;;;7.65;4.15;;;10.80;99.90;;;;;;5055841;28;20033;-76
2023/11/05 09:30:11;;;;;;;10.18;4.28;;;10.80;99.90;;;;;;5056115;28;20135;-75
2023/11/05 09:32:38;;;;;;;7.32;3.90;;;10.90;99.90;;;;;;5059055;28;20043;-75
2023/11/05 09:35:07;;;;;;;10.95;4.78;;;10.90;99.90;;;;;;5067044;28;20033;-75
2023/11/05 09:37:33;;;;;;;9.45;4.75;;;11.00;99.90;;;;;;5071829;28;20051;-76
2023/11/05 09:39:58;;;;;;;11.38;4.72;;;11.10;99.90;;;;;;5058832;28;20526;-76
2023/11/05 09:42:25;;;;;;;8.55;4.45;;;11.10;99.90;;;;;;5056035;28;20048;-76
2023/11/05 09:44:51;;;;;;;7.10;4.20;;;11.20;99.90;;;;;;5055908;28;20052;-76
2023/11/05 09:47:19;;;;;;;11.27;4.38;;;11.20;99.90;;;;;;5055835;28;20546;-75
2023/11/05 09:49:44;;;;;;;8.25;5.43;;;11.20;99.90;;;;;;5056802;28;20120;-75
2023/11/05 09:52:11;;;;;;;7.80;4.60;;;11.20;99.90;;;;;;5058158;28;20076;-75
2023/11/05 09:54:40;;;;;;;9.52;5.45;;;11.20;99.90;;;;;;5055296;28;20055;-75
2023/11/05 09:57:07;;;;;;;9.15;4.88;;;11.30;99.90;;;;;;5055713;28;20111;-74
2023/11/05 09:59:33;;;;;;;7.15;4.63;;;11.30;99.90;;;;;;5072739;28;20043;-75
2023/11/05 10:01:59;;;;;;;6.90;4.78;;;11.30;99.90;;;;;;5055153;28;20029;-76
2023/11/05 10:04:25;;;;;;;11.25;4.63;;;11.40;99.90;;;;;;5057151;28;20135;-76
2023/11/05 10:06:52;;;;;;;14.70;6.18;;;11.40;99.90;;;;;;5040889;28;20036;-74
2023/11/05 10:09:17;;;;;;;10.45;5.18;;;11.40;99.90;;;;;;5057525;28;20048;-75
2023/11/05 10:11:44;;;;;;;12.40;4.97;;;11.40;99.90;;;;;;5055125;28;20044;-76
2023/11/05 10:14:11;;;;;;;9.68;4.80;;;11.40;99.90;;;;;;5072362;28;20045;-75
2023/11/05 10:16:38;;;;;;;9.82;4.50;;;11.40;99.90;;;;;;5072204;28;20032;-75
2023/11/05 10:19:04;;;;;;;9.90;5.10;;;11.40;99.90;;;;;;5040202;28;20029;-76
2023/11/05 10:21:37;;;;;;;9.63;4.78;;;11.50;99.90;;;;;;5040769;28;20036;-75
2023/11/05 10:24:03;;;;;;;11.18;4.95;;;11.50;99.90;;;;;;5056392;28;20506;-75
2023/11/05 10:26:33;;;;;;;13.32;5.50;;;11.50;99.90;;;;;;5054735;28;20045;-75
2023/11/05 10:29:00;;;;;;;14.60;5.45;;;11.60;99.90;;;;;;5054796;28;20091;-75
2023/11/05 10:31:27;;;;;;;7.00;5.13;;;11.70;99.90;;;;;;5054567;28;20133;-75
2023/11/05 10:33:55;;;;;;;10.10;4.72;;;11.70;99.90;;;;;;5058873;28;20647;-74
2023/11/05 10:36:22;;;;;;;12.68;5.70;;;11.70;99.90;;;;;;5085454;28;20036;-74
2023/11/05 10:38:51;;;;;;;8.40;4.90;;;11.70;99.90;;;;;;5055652;28;20032;-74
2023/11/05 10:41:18;;;;;;;10.82;5.40;;;11.60;99.90;;;;;;5072366;28;20492;-73
2023/11/05 10:43:50;;;;;;;11.93;5.28;;;11.60;99.90;;;;;;5072359;28;20044;-74
2023/11/05 10:46:17;;;;;;;13.77;5.35;;;11.70;99.90;;;;;;5054285;28;20147;-75
2023/11/05 10:48:45;;;;;;;6.50;4.47;;;11.60;99.90;;;;;;5061941;28;20140;-75
2023/11/05 10:51:13;;;;;;;9.30;5.60;;;11.60;99.90;;;;;;5065074;28;20115;-75
2023/11/05 10:53:40;;;;;;;12.27;6.35;;;11.60;99.90;;;;;;5037684;28;20442;-75
2023/11/05 10:56:31;;;;;;;11.98;5.50;;;11.60;99.90;;;;;;5071822;28;20083;-76
2023/11/05 10:58:56;;;;;;;10.20;6.05;;;11.60;99.90;;;;;;5037841;28;20111;-76
2023/11/05 11:01:28;;;;;;;13.80;5.10;;;11.70;99.90;;;;;;5083341;28;20090;-75
2023/11/05 11:04:03;;;;;;;15.77;5.78;;;11.70;99.90;;;;;;5035108;28;20045;-76
2023/11/05 11:06:28;;;;;;;12.35;5.70;;;11.70;99.90;;;;;;5035576;28;20508;-75
2023/11/05 11:09:00;;;;;;;17.48;6.13;;;11.80;99.90;;;;;;5072103;28;20035;-74
2023/11/05 11:11:26;;;;;;;8.88;5.30;;;11.80;99.90;;;;;;5036800;28;20041;-74
2023/11/05 11:13:57;;;;;;;10.02;5.03;;;11.80;99.90;;;;;;5053759;28;20029;-74
2023/11/05 11:16:29;;;;;;;13.48;5.57;;;11.90;99.90;;;;;;5072662;28;20108;-76
2023/11/05 11:18:55;;;;;;;16.35;5.90;;;12.00;99.90;;;;;;5040430;28;20037;-76
2023/11/05 11:21:21;;;;;;;11.70;6.20;;;11.90;99.90;;;;;;5074727;28;20090;-75
2023/11/05 11:23:49;;;;;;;11.13;5.45;;;11.90;99.90;;;;;;5057610;28;20036;-75
2023/11/05 11:26:20;;;;;;;11.85;4.60;;;11.90;99.90;;;;;;5047485;28;20411;-75
2023/11/05 11:28:52;;;;;;;13.10;6.20;;;11.90;99.90;;;;;;5053621;28;20535;-74
2023/11/05 11:31:17;;;;;;;11.20;5.75;;;11.90;99.90;;;;;;5055155;28;20396;-76
2023/11/05 11:33:45;;;;;;;15.88;5.63;;;12.00;99.90;;;;;;5073854;28;20045;-75
2023/11/05 11:36:11;;;;;;;12.50;5.95;;;11.90;99.90;;;;;;5056041;28;20041;-75
2023/11/05 11:38:37;;;;;;;13.25;6.15;;;11.90;99.90;;;;;;5036779;28;20074;-75
2023/11/05 11:41:03;;;;;;;12.57;6.40;;;11.90;99.90;;;;;;5053336;28;20028;-75
2023/11/05 11:43:30;;;;;;;17.05;6.97;;;11.90;99.90;;;;;;5037021;28;20048;-74
2023/11/05 11:45:56;;;;;;;9.45;5.53;;;11.90;99.90;;;;;;5055187;28;20086;-76
2023/11/05 11:48:26;;;;;;;14.45;6.50;;;11.90;99.90;;;;;;5056342;28;20336;-75
2023/11/05 11:50:55;;;;;;;16.92;7.22;;;11.90;99.90;;;;;;5072993;28;20048;-74
2023/11/05 11:53:34;;;;;;;16.40;7.03;;;11.90;99.90;;;;;;5053685;28;20076;-75
2023/11/05 11:56:00;;;;;;;12.05;6.13;;;11.80;99.90;;;;;;5071579;28;20051;-75
2023/11/05 11:58:27;;;;;;;14.32;7.55;;;11.90;99.90;;;;;;5071629;28;20082;-73
2023/11/05 12:00:55;;;;;;;18.30;7.47;;;11.90;99.90;;;;;;5056227;28;20090;-75
2023/11/05 12:03:23;;;;;;;10.93;6.93;;;11.90;99.90;;;;;;5051434;28;20040;-75
2023/11/05 12:05:49;;;;;;;17.80;7.63;;;11.90;99.90;;;;;;5053345;28;20558;-77
2023/11/05 12:08:33;;;;;;;15.15;7.63;;;11.90;99.90;;;;;;5037485;28;20415;-76
2023/11/05 12:11:00;;;;;;;21.80;8.60;;;11.90;99.90;;;;;;5053722;28;20047;-75
2023/11/05 12:13:26;;;;;;;14.23;6.63;;;11.80;99.90;;;;;;5054665;28;20105;-75
2023/11/05 12:15:52;;;;;;;19.08;8.10;;;11.90;99.90;;;;;;5053448;28;20045;-75
2023/11/05 12:18:18;;;;;;;15.35;8.00;;;11.80;99.90;;;;;;5036576;28;20594;-75
2023/11/05 12:20:44;;;;;;;14.80;7.78;;;11.90;99.90;;;;;;5052842;28;20041;-74
2023/11/05 12:23:10;;;;;;;16.38;7.85;;;11.90;99.90;;;;;;5056458;28;20043;-74
2023/11/05 12:25:35;;;;;;;14.88;7.50;;;11.80;99.90;;;;;;5056995;28;20040;-75
2023/11/05 12:28:01;;;;;;;14.00;7.22;;;11.90;99.90;;;;;;5040830;28;20033;-74
2023/11/05 12:30:28;;;;;;;18.98;7.65;;;11.80;99.90;;;;;;5057259;28;20040;-75
2023/11/05 12:32:53;;;;;;;24.98;7.93;;;11.80;99.90;;;;;;5056575;28;20079;-74
2023/11/05 12:35:19;;;;;;;12.77;6.45;;;11.80;99.90;;;;;;5055876;28;20581;-74
2023/11/05 12:37:45;;;;;;;12.60;6.97;;;11.80;99.90;;;;;;5056616;28;20414;-74
2023/11/05 12:40:13;;;;;;;14.40;7.43;;;11.80;99.90;;;;;;5055876;28;20040;-74
2023/11/05 12:42:39;;;;;;;19.33;8.25;;;11.80;99.90;;;;;;5056618;28;20139;-74
2023/11/05 12:45:07;;;;;;;13.38;6.55;;;11.90;99.90;;;;;;5038957;28;20093;-74
2023/11/05 12:47:33;;;;;;;14.48;7.28;;;11.90;99.90;;;;;;5056699;28;20044;-73